Pagina principale
METAR-TAF:

METAR-TAF

Aeroporti :

Aeroporto Internazionale di Damasco

Damasco, Siria

latitudine: 33-25N, longitudine: 036-31E, altezza: 608 m

Osservazione

Il bollettino è stato emesso 46 minuti fa, alle 17:00 UTC
Vento 10 kt da ovest/sud-ovest
Temperature 26°C
Umidità 26%
Pressione 1013 hPa
Visibilità 10 km o più
nessuna nube inferiore a 1500 m e nessun cumulonembo

METAR: OSDI 311700Z 25010KT CAVOK 26/05 Q1013

Ora: 20:46 (17:46 UTC)

Previsione

Previsione valida dal 31 alle 18 UTC al 01 alle 24 UTC
Vento 15 kt da sud-ovest
Visibilità 10 km o più
nessuna nube inferiore a 1500 m e nessun cumulonembo
Temporaneamente
dal 01 alle 00 UTC al 01 alle 09 UTC
Vento 3 kt da direzioni variabili

TAF: OSDI 3118/0124 22015KT CAVOK TEMPO 0100/0109 VRB03KT

Osservazioni e previsioni meteorologiche di più di 4000 aeroporti (messaggi METAR e TAF).

Le stazioni disponibili sono rappresentate dai dischi gialli e rossi sulla carta.

Puntare il mouse per vedere il nome della stazione.

Clicca sopra per visualizzare le osservazioni e previsioni meteorologiche.

Per cambiare la mappa : fare clic sui pulsanti verdi con una croce nera per ingrandire, il pulsante verde con un trattino per diminuire, o sulla freccia verde per le mappe adiacenti.


METAR-TAF: